Time;durP1;ratioP1;P1;durP2;ratioP2;P2;SDS_P1;SDS_P2;PMS_P1;PMS_P2;Temp;Humidity;BMP_temperature;BMP_pressure;BME280_temperature;BME280_humidity;BME280_pressure;Samples;Min_cycle;Max_cycle;Signal;HPM_P1;HPM_P2
2023/08/27 08:28:15;;;;;;;3.17;2.60;;;17.00;99.90;;;;;;5101660;27;20628;-87
2023/08/27 08:30:47;;;;;;;4.47;2.50;;;16.80;99.90;;;;;;5067694;28;20240;-87
2023/08/27 08:33:14;;;;;;;2.90;2.20;;;16.90;99.90;;;;;;5070169;28;20197;-86
2023/08/27 08:35:41;;;;;;;3.13;2.35;;;16.90;99.90;;;;;;5068547;28;20197;-86
2023/08/27 08:38:08;;;;;;;2.35;2.13;;;16.90;99.90;;;;;;5066578;28;20200;-85
2023/08/27 08:40:44;;;;;;;2.65;1.90;;;17.00;99.90;;;;;;5065545;28;20193;-90
2023/08/27 08:43:18;;;;;;;2.65;1.85;;;17.10;99.90;;;;;;5064842;28;20200;-86
2023/08/27 08:45:53;;;;;;;2.78;1.80;;;17.20;99.90;;;;;;5066379;28;20225;-86
2023/08/27 08:48:25;;;;;;;3.40;1.80;;;17.20;99.90;;;;;;5058404;28;20247;-86
2023/08/27 08:50:54;;;;;;;2.92;1.90;;;17.30;99.90;;;;;;5059359;28;20673;-88
2023/08/27 08:53:26;;;;;;;1.95;1.65;;;17.40;99.90;;;;;;5066939;28;20224;-87
2023/08/27 08:56:01;;;;;;;1.50;1.40;;;17.30;99.90;;;;;;5064181;28;20204;-86
2023/08/27 08:58:34;;;;;;;2.15;1.52;;;17.40;99.90;;;;;;5064505;28;20193;-86
2023/08/27 09:01:03;;;;;;;1.85;1.40;;;17.40;99.90;;;;;;5060685;28;20247;-85
2023/08/27 09:03:31;;;;;;;2.83;1.58;;;17.40;99.90;;;;;;5063806;28;20688;-86
2023/08/27 09:05:58;;;;;;;1.90;1.48;;;17.60;99.90;;;;;;5067728;28;20242;-87
2023/08/27 09:08:26;;;;;;;3.75;1.52;;;17.60;99.90;;;;;;5066462;28;20201;-85
2023/08/27 09:10:53;;;;;;;1.63;1.30;;;17.70;99.90;;;;;;5066562;28;20196;-87
2023/08/27 09:13:21;;;;;;;2.17;1.38;;;17.70;99.90;;;;;;5060602;28;20290;-87
2023/08/27 09:15:50;;;;;;;2.17;1.40;;;17.60;99.90;;;;;;5068530;28;20212;-87
2023/08/27 09:18:17;;;;;;;2.35;1.55;;;17.50;99.90;;;;;;5067872;28;20652;-87
2023/08/27 09:20:44;;;;;;;2.22;1.42;;;17.60;99.90;;;;;;5063300;28;20193;-88
2023/08/27 09:23:13;;;;;;;1.92;1.70;;;17.70;99.90;;;;;;5061581;28;20202;-86
2023/08/27 09:25:40;;;;;;;2.22;1.77;;;17.60;99.90;;;;;;5061241;28;20194;-86
2023/08/27 09:28:07;;;;;;;1.88;1.52;;;17.50;99.90;;;;;;5069253;28;20560;-86
2023/08/27 09:30:34;;;;;;;3.10;1.40;;;17.40;99.90;;;;;;5071774;28;20192;-87
2023/08/27 09:33:03;;;;;;;1.90;1.80;;;17.50;99.90;;;;;;5060619;28;20204;-87
2023/08/27 09:35:38;;;;;;;3.00;1.80;;;17.40;99.90;;;;;;5063715;28;20272;-87
2023/08/27 09:38:05;;;;;;;3.17;1.80;;;17.30;99.90;;;;;;5060252;28;20201;-87
2023/08/27 09:40:32;;;;;;;1.85;1.67;;;17.20;99.90;;;;;;5046221;28;20190;-86
2023/08/27 09:43:07;;;;;;;2.25;1.80;;;17.10;99.90;;;;;;5056377;28;20205;-88
2023/08/27 09:45:35;;;;;;;1.92;1.70;;;17.10;99.90;;;;;;5052394;28;20198;-87
2023/08/27 09:48:04;;;;;;;2.10;1.90;;;17.00;99.90;;;;;;5052529;28;20210;-87
2023/08/27 09:50:32;;;;;;;1.95;1.70;;;17.00;99.90;;;;;;5052415;28;20297;-87
2023/08/27 09:53:07;;;;;;;4.43;1.77;;;16.90;99.90;;;;;;5051376;28;20585;-87
2023/08/27 09:55:34;;;;;;;2.38;2.13;;;16.90;99.90;;;;;;5053506;28;20333;-89
2023/08/27 09:58:02;;;;;;;2.83;1.60;;;16.90;99.90;;;;;;5049425;28;20255;-87
2023/08/27 10:00:29;;;;;;;3.47;1.90;;;16.80;99.90;;;;;;5051645;28;20228;-88
2023/08/27 10:02:57;;;;;;;1.90;1.70;;;16.80;99.90;;;;;;5054279;28;20545;-87
2023/08/27 10:05:30;;;;;;;2.28;1.58;;;16.80;99.90;;;;;;5054572;28;20193;-87
2023/08/27 10:07:58;;;;;;;2.67;1.55;;;16.90;99.90;;;;;;5053976;28;20717;-87
2023/08/27 10:10:25;;;;;;;1.73;1.50;;;16.80;99.90;;;;;;5054683;28;20206;-87
2023/08/27 10:12:54;;;;;;;1.77;1.45;;;16.90;99.90;;;;;;5050163;28;20186;-87
2023/08/27 10:15:22;;;;;;;1.85;1.75;;;16.70;99.90;;;;;;5053435;28;20252;-87
2023/08/27 10:17:50;;;;;;;1.48;1.38;;;16.60;99.90;;;;;;5055710;28;20186;-88
2023/08/27 10:20:21;;;;;;;3.35;1.70;;;16.60;99.90;;;;;;5053524;28;20194;-88
2023/08/27 10:22:50;;;;;;;2.17;1.58;;;16.60;99.90;;;;;;5059095;28;20191;-87
2023/08/27 10:25:18;;;;;;;2.17;1.70;;;16.50;99.90;;;;;;5050561;28;20204;-88
2023/08/27 10:27:47;;;;;;;2.67;1.70;;;16.50;99.90;;;;;;5053546;28;20222;-88
2023/08/27 10:30:16;;;;;;;1.90;1.70;;;16.50;99.90;;;;;;5045337;28;20205;-87
2023/08/27 10:32:43;;;;;;;2.28;1.60;;;16.50;99.90;;;;;;5037893;28;20197;-88
2023/08/27 10:35:11;;;;;;;2.13;1.98;;;16.50;99.90;;;;;;5047849;28;20197;-88
2023/08/27 10:37:41;;;;;;;2.17;1.83;;;16.50;99.90;;;;;;5051682;28;20202;-88
2023/08/27 10:40:12;;;;;;;1.98;1.75;;;16.50;99.90;;;;;;5052610;28;20285;-88
2023/08/27 10:42:42;;;;;;;2.90;1.88;;;16.50;99.90;;;;;;5057120;28;20231;-89
2023/08/27 10:45:16;;;;;;;2.28;1.63;;;16.40;99.90;;;;;;5054970;28;20216;-89
2023/08/27 10:51:18;;;;;;;2.65;1.70;;;16.40;99.90;;;;;;5048588;22;20309;-91
2023/08/27 10:53:56;;;;;;;1.70;1.55;;;16.40;99.90;;;;;;5050677;28;20798;-90
2023/08/27 10:56:30;;;;;;;2.55;2.08;;;16.40;99.90;;;;;;5051144;28;20204;-91
2023/08/27 10:59:01;;;;;;;2.47;1.65;;;16.40;99.90;;;;;;5055576;28;20276;-90
2023/08/27 11:01:28;;;;;;;2.58;1.80;;;16.50;99.90;;;;;;5060724;28;20221;-89
2023/08/27 11:04:08;;;;;;;2.92;2.00;;;16.50;99.90;;;;;;5045526;28;20813;-89
2023/08/27 11:06:55;;;;;;;3.35;2.05;;;16.60;99.90;;;;;;5048866;28;20356;-88
2023/08/27 11:09:23;;;;;;;3.85;1.92;;;16.50;99.90;;;;;;5046798;28;20293;-87
2023/08/27 11:11:53;;;;;;;2.35;1.88;;;16.60;99.90;;;;;;5053382;28;20594;-89
2023/08/27 11:14:22;;;;;;;2.28;1.80;;;16.70;99.90;;;;;;5053312;28;20200;-88
2023/08/27 11:16:55;;;;;;;4.20;2.28;;;16.70;99.90;;;;;;5053240;28;20201;-88
2023/08/27 11:19:31;;;;;;;2.97;2.00;;;16.90;99.90;;;;;;5051555;28;20200;-88
2023/08/27 11:22:10;;;;;;;2.67;2.00;;;16.80;99.90;;;;;;5055458;28;20607;-87
2023/08/27 11:24:39;;;;;;;2.35;1.98;;;16.80;99.90;;;;;;5048468;28;20199;-86
2023/08/27 11:27:10;;;;;;;2.25;1.50;;;16.90;99.90;;;;;;5040577;28;20717;-87
2023/08/27 11:32:21;;;;;;;3.40;1.92;;;17.10;99.90;;;;;;5308957;22;20243;-94
2023/08/27 11:43:41;;;;;;;3.28;1.80;;;16.80;99.90;;;;;;5689035;22;20233;-94
2023/08/27 11:49:36;;;;;;;2.10;1.88;;;16.60;99.90;;;;;;5375201;22;20254;-89
2023/08/27 11:52:03;;;;;;;2.85;2.10;;;16.70;99.90;;;;;;5041674;28;20227;-91
2023/08/27 11:54:32;;;;;;;2.25;2.03;;;16.70;99.90;;;;;;5038223;28;20213;-90
2023/08/27 11:57:02;;;;;;;2.55;1.67;;;16.70;99.90;;;;;;5041026;28;20209;-92
2023/08/27 11:59:30;;;;;;;3.00;1.90;;;16.90;99.90;;;;;;5039047;28;20237;-90
2023/08/27 12:02:02;;;;;;;2.13;1.80;;;17.00;99.90;;;;;;5088275;23;20581;-90
2023/08/27 12:04:32;;;;;;;1.70;1.60;;;17.00;99.90;;;;;;5042800;28;20194;-90
2023/08/27 12:07:02;;;;;;;2.10;1.90;;;17.00;99.90;;;;;;5051854;28;20738;-90
2023/08/27 12:09:30;;;;;;;2.67;1.60;;;16.90;99.90;;;;;;5052125;28;20622;-89
2023/08/27 12:12:00;;;;;;;1.98;1.70;;;16.90;99.90;;;;;;5044931;28;20198;-89
2023/08/27 12:14:29;;;;;;;2.22;1.70;;;17.00;99.90;;;;;;5041146;28;20672;-89
2023/08/27 12:17:03;;;;;;;2.03;1.50;;;17.00;99.90;;;;;;5047578;28;20217;-90
2023/08/27 12:19:32;;;;;;;1.63;1.52;;;16.90;99.90;;;;;;5044120;28;20273;-89
2023/08/27 12:21:59;;;;;;;2.13;1.73;;;16.80;99.90;;;;;;5046601;28;20202;-91
2023/08/27 12:24:34;;;;;;;3.38;1.50;;;16.70;99.90;;;;;;5053522;28;20205;-89
2023/08/27 12:27:05;;;;;;;2.78;1.70;;;16.70;99.90;;;;;;5044103;28;20205;-88
2023/08/27 12:29:33;;;;;;;2.58;1.90;;;16.60;99.90;;;;;;5045451;28;20217;-88
2023/08/27 12:32:08;;;;;;;2.78;1.75;;;16.60;99.90;;;;;;5047964;28;20221;-89
2023/08/27 12:34:49;;;;;;;1.48;1.38;;;16.60;99.90;;;;;;5043828;28;20194;-88
2023/08/27 12:37:21;;;;;;;1.50;1.40;;;16.60;99.90;;;;;;5043131;28;20220;-89
2023/08/27 12:39:50;;;;;;;1.58;1.35;;;16.60;99.90;;;;;;5044238;28;20277;-90
2023/08/27 12:42:17;;;;;;;2.78;1.70;;;16.70;99.90;;;;;;5046172;28;20655;-90
2023/08/27 12:44:44;;;;;;;2.97;1.67;;;16.90;99.90;;;;;;5045391;28;20201;-89
2023/08/27 12:47:12;;;;;;;2.45;1.70;;;16.90;99.90;;;;;;5043016;28;20656;-89
2023/08/27 12:49:43;;;;;;;3.20;1.60;;;16.90;99.90;;;;;;5041197;28;20198;-90
2023/08/27 12:52:10;;;;;;;1.50;1.40;;;17.00;99.90;;;;;;5033598;28;20215;-90
2023/08/27 12:54:37;;;;;;;1.55;1.45;;;17.00;99.90;;;;;;5025257;28;20199;-89
2023/08/27 12:57:04;;;;;;;2.90;1.70;;;17.00;99.90;;;;;;5031695;28;20199;-89
2023/08/27 12:59:32;;;;;;;2.20;1.30;;;17.00;99.90;;;;;;5033479;28;20198;-89
2023/08/27 13:01:59;;;;;;;1.75;1.65;;;16.90;99.90;;;;;;5023566;28;20199;-91
2023/08/27 13:04:29;;;;;;;2.88;1.85;;;16.80;99.90;;;;;;5028922;28;20191;-90
2023/08/27 13:06:57;;;;;;;1.83;1.67;;;16.80;99.90;;;;;;5031879;28;20658;-90
2023/08/27 13:09:24;;;;;;;3.03;1.50;;;16.70;99.90;;;;;;5032188;28;20588;-90
2023/08/27 13:11:51;;;;;;;1.77;1.60;;;16.80;99.90;;;;;;5036202;28;20202;-93
2023/08/27 13:14:18;;;;;;;2.40;1.77;;;16.70;99.90;;;;;;5054610;28;20198;-91
2023/08/27 13:16:47;;;;;;;1.90;1.65;;;16.80;99.90;;;;;;5056903;28;20179;-91
2023/08/27 13:19:14;;;;;;;1.58;1.48;;;16.70;99.90;;;;;;5038766;28;20195;-90
2023/08/27 13:21:44;;;;;;;2.83;1.60;;;16.70;99.90;;;;;;5037229;28;20199;-90
2023/08/27 13:24:12;;;;;;;3.22;1.40;;;16.60;99.90;;;;;;5036394;28;20226;-91
2023/08/27 13:26:39;;;;;;;1.50;1.40;;;16.70;99.90;;;;;;5037095;28;20252;-90
2023/08/27 13:29:06;;;;;;;6.15;1.55;;;16.70;99.90;;;;;;5035854;28;20237;-90
2023/08/27 13:31:33;;;;;;;1.77;1.52;;;16.70;99.90;;;;;;5044029;28;20213;-91
2023/08/27 13:34:00;;;;;;;2.15;1.60;;;16.80;99.90;;;;;;5040110;28;20207;-91
2023/08/27 13:36:27;;;;;;;1.70;1.50;;;16.80;99.90;;;;;;5037163;28;20249;-90
2023/08/27 13:38:54;;;;;;;1.70;1.58;;;16.90;99.90;;;;;;5033804;28;20252;-91
2023/08/27 13:41:23;;;;;;;1.40;1.30;;;17.20;99.90;;;;;;5031615;28;20551;-90
2023/08/27 13:43:50;;;;;;;2.45;1.77;;;17.20;99.90;;;;;;5029992;28;20213;-90
2023/08/27 13:46:17;;;;;;;1.40;1.30;;;17.10;99.90;;;;;;5036380;28;20205;-90
2023/08/27 13:48:44;;;;;;;1.63;1.50;;;17.20;99.90;;;;;;5030023;28;20222;-91
2023/08/27 13:51:11;;;;;;;1.95;1.70;;;17.30;99.90;;;;;;5035066;28;20226;-92
2023/08/27 13:53:39;;;;;;;2.10;1.48;;;17.40;99.90;;;;;;5034441;28;20205;-92
2023/08/27 13:56:06;;;;;;;1.58;1.48;;;17.50;99.90;;;;;;5040260;28;20203;-91
2023/08/27 13:58:35;;;;;;;1.65;1.55;;;17.80;99.90;;;;;;5020001;28;20694;-92
2023/08/27 14:01:04;;;;;;;2.10;1.63;;;18.00;99.90;;;;;;5028999;28;20199;-89
2023/08/27 14:03:31;;;;;;;1.13;1.00;;;18.00;99.90;;;;;;5007349;28;20213;-92
2023/08/27 14:05:58;;;;;;;1.33;1.20;;;18.20;99.90;;;;;;5032989;28;20209;-89
2023/08/27 14:08:26;;;;;;;1.00;1.00;;;18.00;99.90;;;;;;5033904;28;20226;-91
2023/08/27 14:10:55;;;;;;;1.30;1.20;;;18.00;99.90;;;;;;5026624;28;20203;-90
2023/08/27 14:13:22;;;;;;;3.63;1.50;;;18.10;99.90;;;;;;5032668;28;20210;-91
2023/08/27 14:15:51;;;;;;;1.45;1.30;;;18.00;99.90;;;;;;5036813;28;20202;-90
2023/08/27 14:18:18;;;;;;;1.35;1.10;;;17.90;99.90;;;;;;5028792;28;20206;-91
2023/08/27 14:20:45;;;;;;;1.30;1.20;;;17.80;99.90;;;;;;5030006;28;20203;-90
2023/08/27 14:23:12;;;;;;;2.08;1.42;;;17.80;99.90;;;;;;5032189;28;20203;-91
2023/08/27 14:25:40;;;;;;;1.30;1.20;;;17.80;99.90;;;;;;5029169;28;20202;-91
2023/08/27 14:28:08;;;;;;;1.50;1.40;;;17.80;99.90;;;;;;5029924;28;20221;-90
2023/08/27 14:30:35;;;;;;;1.63;1.40;;;17.80;99.90;;;;;;5030601;28;20277;-91
2023/08/27 14:33:06;;;;;;;1.50;1.40;;;17.70;99.90;;;;;;5033444;28;20399;-90
2023/08/27 14:35:33;;;;;;;1.50;1.20;;;17.60;99.90;;;;;;5026637;28;20273;-91
2023/08/27 14:37:59;;;;;;;1.83;1.30;;;17.70;99.90;;;;;;5031300;28;20209;-90
2023/08/27 14:40:26;;;;;;;1.50;1.40;;;17.60;99.90;;;;;;5033213;28;20194;-90
2023/08/27 14:42:53;;;;;;;1.05;1.05;;;17.60;99.90;;;;;;5029989;28;20191;-90
2023/08/27 14:45:20;;;;;;;1.27;1.17;;;17.50;99.90;;;;;;5039826;28;20201;-91
2023/08/27 14:47:47;;;;;;;1.40;1.20;;;17.40;99.90;;;;;;5029509;28;20206;-91
2023/08/27 14:50:18;;;;;;;1.50;1.40;;;17.40;99.90;;;;;;5028627;28;20199;-90
2023/08/27 14:52:45;;;;;;;1.00;1.00;;;17.40;99.90;;;;;;5035744;28;20198;-90
2023/08/27 14:55:13;;;;;;;1.40;1.30;;;17.20;99.90;;;;;;5033758;28;20202;-91
2023/08/27 14:57:39;;;;;;;1.73;0.95;;;17.00;99.90;;;;;;5033720;28;20205;-89
2023/08/27 15:00:08;;;;;;;1.40;1.10;;;16.90;99.90;;;;;;5040893;28;20233;-93
2023/08/27 15:02:35;;;;;;;1.05;1.05;;;16.90;99.90;;;;;;5032717;28;20259;-91
2023/08/27 15:05:03;;;;;;;1.73;1.30;;;16.70;99.90;;;;;;5033296;28;20195;-92
2023/08/27 15:10:12;;;;;;;1.00;0.90;;;16.70;99.90;;;;;;5032837;28;20199;-91
2023/08/27 15:12:39;;;;;;;1.55;1.10;;;16.60;99.90;;;;;;5025342;28;20201;-91
2023/08/27 15:15:07;;;;;;;1.60;1.02;;;16.60;99.90;;;;;;5035507;28;20207;-89
2023/08/27 15:17:34;;;;;;;0.90;0.90;;;16.60;99.90;;;;;;5028177;28;20732;-88
2023/08/27 15:20:01;;;;;;;2.00;1.20;;;16.60;99.90;;;;;;5033347;28;20202;-90
2023/08/27 15:22:28;;;;;;;1.48;1.33;;;16.60;99.90;;;;;;5029209;28;20222;-88
2023/08/27 15:24:56;;;;;;;1.15;1.05;;;16.60;99.90;;;;;;5033953;28;20205;-89
2023/08/27 15:27:25;;;;;;;1.73;1.60;;;16.60;99.90;;;;;;5025224;28;20198;-93
2023/08/27 15:29:53;;;;;;;2.85;1.50;;;16.70;99.90;;;;;;5032625;28;20222;-90
2023/08/27 15:32:20;;;;;;;2.55;1.42;;;16.60;99.90;;;;;;5030318;28;20203;-92
2023/08/27 15:34:46;;;;;;;1.05;0.95;;;16.60;99.90;;;;;;5031243;28;20206;-89
2023/08/27 15:37:13;;;;;;;1.25;1.15;;;16.50;99.90;;;;;;5033095;28;20207;-88
2023/08/27 15:39:40;;;;;;;1.63;1.25;;;16.60;99.90;;;;;;5033598;28;20940;-88
2023/08/27 15:42:08;;;;;;;1.20;1.10;;;16.70;99.90;;;;;;5035861;28;20209;-92
2023/08/27 15:44:45;;;;;;;2.90;1.23;;;16.70;99.90;;;;;;5034570;28;20202;-92
2023/08/27 15:47:12;;;;;;;2.22;1.30;;;16.70;99.90;;;;;;5035991;28;20198;-88
2023/08/27 15:49:39;;;;;;;1.58;1.42;;;16.60;99.90;;;;;;5034797;28;20257;-88
2023/08/27 15:52:06;;;;;;;1.73;1.30;;;16.60;99.90;;;;;;5035671;28;20683;-91
2023/08/27 15:54:33;;;;;;;3.08;1.48;;;16.70;99.90;;;;;;5018829;28;20194;-90
2023/08/27 15:56:59;;;;;;;1.65;1.55;;;16.80;99.90;;;;;;5028175;28;20202;-88
2023/08/27 15:59:28;;;;;;;1.98;1.30;;;16.70;99.90;;;;;;5029479;28;20205;-91
2023/08/27 16:01:55;;;;;;;2.13;1.70;;;16.70;99.90;;;;;;5025543;28;20203;-89
2023/08/27 16:04:22;;;;;;;1.35;1.25;;;16.60;99.90;;;;;;5032278;28;20229;-89
2023/08/27 16:06:49;;;;;;;2.05;1.50;;;16.60;99.90;;;;;;5027928;28;20244;-90
2023/08/27 16:09:17;;;;;;;2.08;1.33;;;16.60;99.90;;;;;;5028177;28;20238;-89
2023/08/27 16:11:45;;;;;;;1.63;1.50;;;16.60;99.90;;;;;;5029102;28;20202;-88
2023/08/27 16:14:12;;;;;;;2.67;1.90;;;16.50;99.90;;;;;;5026786;28;20214;-88
2023/08/27 16:16:40;;;;;;;1.60;1.40;;;16.50;99.90;;;;;;5030067;28;20191;-91
2023/08/27 16:19:07;;;;;;;2.28;1.45;;;16.50;99.90;;;;;;5030094;28;20211;-88
2023/08/27 16:21:34;;;;;;;1.40;1.30;;;16.60;99.90;;;;;;5026876;28;20191;-88
2023/08/27 16:24:02;;;;;;;1.90;1.70;;;16.60;99.90;;;;;;5031725;28;20268;-89
2023/08/27 16:26:30;;;;;;;3.20;1.65;;;16.50;99.90;;;;;;5029103;28;20205;-89
2023/08/27 16:28:59;;;;;;;2.15;1.55;;;16.50;99.90;;;;;;5038630;28;20222;-90
2023/08/27 16:31:26;;;;;;;2.70;1.95;;;16.50;99.90;;;;;;5027247;28;20825;-89
2023/08/27 16:33:55;;;;;;;3.75;1.95;;;16.40;99.90;;;;;;5029057;28;20207;-89
2023/08/27 16:36:21;;;;;;;2.08;1.88;;;16.40;99.90;;;;;;5028266;28;20206;-89
2023/08/27 16:38:48;;;;;;;1.80;1.70;;;16.40;99.90;;;;;;5025499;28;20198;-89
2023/08/27 16:41:16;;;;;;;2.33;1.83;;;16.40;99.90;;;;;;5028221;28;20199;-91
2023/08/27 16:43:42;;;;;;;1.98;1.77;;;16.40;99.90;;;;;;5023737;28;20539;-88
2023/08/27 16:46:10;;;;;;;1.90;1.58;;;16.40;99.90;;;;;;5028552;28;20230;-89
2023/08/27 16:48:38;;;;;;;2.47;1.50;;;16.40;99.90;;;;;;5030109;28;20250;-88
2023/08/27 16:51:07;;;;;;;2.15;1.67;;;16.40;99.90;;;;;;5032254;28;20404;-89
2023/08/27 16:53:36;;;;;;;2.05;1.40;;;16.40;99.90;;;;;;5031823;28;20201;-87
2023/08/27 16:56:06;;;;;;;3.17;1.50;;;16.40;99.90;;;;;;5033929;28;20199;-90
2023/08/27 17:20:09;;;;;;;1.88;1.58;;;16.40;99.90;;;;;;5056600;28;20754;-90
2023/08/27 17:22:36;;;;;;;1.92;1.73;;;16.30;99.90;;;;;;5051899;28;20212;-90
2023/08/27 17:25:03;;;;;;;1.75;1.63;;;16.30;99.90;;;;;;5053615;28;20687;-90
2023/08/27 17:27:30;;;;;;;3.13;1.55;;;16.30;99.90;;;;;;5053394;28;21386;-91
2023/08/27 17:32:39;;;;;;;1.70;1.60;;;16.30;99.90;;;;;;5031890;28;20202;-91
2023/08/27 17:35:07;;;;;;;1.73;1.63;;;16.20;99.90;;;;;;5056198;28;20197;-90
2023/08/27 17:37:35;;;;;;;2.40;1.83;;;16.20;99.90;;;;;;5037793;28;20599;-90
2023/08/27 17:40:02;;;;;;;1.98;1.77;;;16.20;99.90;;;;;;5059271;28;20202;-90
2023/08/27 17:42:29;;;;;;;1.77;1.67;;;16.20;99.90;;;;;;5039652;28;20564;-89
2023/08/27 17:44:56;;;;;;;1.63;1.52;;;16.20;99.90;;;;;;5054852;28;20202;-91
2023/08/27 17:47:23;;;;;;;2.28;1.95;;;16.20;99.90;;;;;;5035082;28;20543;-89
2023/08/27 17:49:52;;;;;;;1.73;1.63;;;16.20;99.90;;;;;;5036108;28;20221;-90
2023/08/27 17:52:18;;;;;;;1.95;1.70;;;16.20;99.90;;;;;;5012895;28;20221;-89
2023/08/27 17:54:45;;;;;;;1.80;1.70;;;16.20;99.90;;;;;;5031635;28;20203;-90
2023/08/27 17:57:15;;;;;;;2.95;2.00;;;16.20;99.90;;;;;;5019396;28;20655;-90
2023/08/27 17:59:42;;;;;;;2.50;1.65;;;16.20;99.90;;;;;;5015419;28;20684;-91
2023/08/27 18:02:08;;;;;;;1.77;1.67;;;16.30;99.90;;;;;;5026584;28;20208;-89
2023/08/27 18:04:35;;;;;;;1.90;1.70;;;16.20;99.90;;;;;;5014887;28;20570;-88
2023/08/27 18:07:06;;;;;;;1.98;1.80;;;16.30;99.90;;;;;;5032435;28;20191;-93
2023/08/27 18:09:33;;;;;;;1.80;1.60;;;16.20;99.90;;;;;;5031489;28;20215;-90
2023/08/27 18:11:59;;;;;;;1.83;1.50;;;16.10;99.90;;;;;;5013362;28;20559;-90
2023/08/27 18:14:26;;;;;;;1.95;1.75;;;16.10;99.90;;;;;;5032149;28;20202;-92
2023/08/27 18:16:53;;;;;;;2.45;1.77;;;16.00;99.90;;;;;;5035889;28;20225;-90
2023/08/27 18:19:20;;;;;;;3.45;1.90;;;15.90;99.90;;;;;;5034141;28;20234;-91
2023/08/27 18:21:47;;;;;;;3.47;2.30;;;15.90;99.90;;;;;;5012793;28;20202;-91
2023/08/27 18:24:15;;;;;;;3.45;2.30;;;15.90;99.90;;;;;;5031346;28;20210;-90
2023/08/27 18:26:42;;;;;;;3.38;2.30;;;16.00;99.90;;;;;;5018090;28;20204;-89
2023/08/27 18:29:09;;;;;;;3.03;1.88;;;15.90;99.90;;;;;;5021623;28;20222;-91
2023/08/27 18:31:37;;;;;;;2.88;2.20;;;15.90;99.90;;;;;;5026272;28;20209;-91
2023/08/27 18:34:04;;;;;;;3.20;1.90;;;16.00;99.90;;;;;;5020457;28;20202;-92
2023/08/27 18:36:32;;;;;;;2.28;1.77;;;15.90;99.90;;;;;;5035702;28;20570;-91
2023/08/27 18:39:00;;;;;;;2.15;1.73;;;15.90;99.90;;;;;;5031835;28;20198;-91
2023/08/27 18:41:31;;;;;;;2.20;1.70;;;15.90;99.90;;;;;;5044553;28;20206;-91
2023/08/27 18:43:57;;;;;;;1.92;1.73;;;15.90;99.90;;;;;;5025232;28;20207;-90
2023/08/27 18:46:28;;;;;;;1.85;1.70;;;15.80;99.90;;;;;;5030565;28;20206;-90
2023/08/27 18:48:55;;;;;;;1.98;1.60;;;15.80;99.90;;;;;;4996245;28;20230;-90
2023/08/27 18:51:22;;;;;;;2.47;1.60;;;15.70;99.90;;;;;;5031682;28;20695;-89
2023/08/27 18:56:32;;;;;;;1.92;1.52;;;15.60;99.90;;;;;;5026437;28;20199;-89
2023/08/27 18:59:03;;;;;;;2.08;1.63;;;15.50;99.90;;;;;;5029982;28;20226;-91
2023/08/27 19:01:33;;;;;;;1.70;1.60;;;15.50;99.90;;;;;;5027418;28;20195;-90
2023/08/27 19:04:00;;;;;;;3.78;1.80;;;15.50;99.90;;;;;;5007475;28;20226;-88
2023/08/27 19:06:27;;;;;;;2.00;1.80;;;15.50;99.90;;;;;;5009481;28;20291;-89
2023/08/27 19:08:54;;;;;;;3.40;1.70;;;15.50;99.90;;;;;;5035004;28;20194;-90
2023/08/27 19:11:21;;;;;;;3.55;1.60;;;15.40;99.90;;;;;;5012066;28;20199;-90
2023/08/27 19:13:49;;;;;;;3.38;1.80;;;15.50;99.90;;;;;;5036506;28;20566;-87
2023/08/27 19:16:20;;;;;;;2.00;1.70;;;15.50;99.90;;;;;;5030976;28;20205;-93
2023/08/27 19:18:47;;;;;;;3.30;1.80;;;15.50;99.90;;;;;;5001450;28;20210;-88
2023/08/27 19:21:14;;;;;;;2.17;1.63;;;15.50;99.90;;;;;;5025355;28;20314;-88
2023/08/27 19:23:41;;;;;;;2.10;1.80;;;15.50;99.90;;;;;;5029035;28;20190;-88
2023/08/27 19:26:10;;;;;;;1.95;1.50;;;15.50;99.90;;;;;;5054768;28;20186;-89
2023/08/27 19:28:37;;;;;;;1.77;1.67;;;15.50;99.90;;;;;;5024073;28;20206;-89
2023/08/27 19:31:06;;;;;;;3.40;1.70;;;15.50;99.90;;;;;;5034158;28;20218;-88
2023/08/27 19:33:33;;;;;;;2.13;1.50;;;15.50;99.90;;;;;;5016431;28;20234;-88
2023/08/27 19:36:02;;;;;;;1.90;1.70;;;15.40;99.90;;;;;;5014007;28;20207;-88
2023/08/27 19:38:29;;;;;;;1.90;1.60;;;15.50;99.90;;;;;;5012875;28;20289;-88
2023/08/27 19:44:18;;;;;;;1.73;1.63;;;15.50;99.90;;;;;;5037667;28;20163;-88
2023/08/27 19:46:48;;;;;;;2.35;1.73;;;15.40;99.90;;;;;;5034511;28;20586;-89
2023/08/27 19:49:15;;;;;;;2.47;1.70;;;15.40;99.90;;;;;;5034514;28;20651;-88
2023/08/27 19:51:43;;;;;;;2.53;1.80;;;15.40;99.90;;;;;;5034589;28;20229;-89
2023/08/27 19:54:12;;;;;;;1.67;1.58;;;15.40;99.90;;;;;;5035922;28;20282;-89
2023/08/27 19:56:40;;;;;;;1.73;1.63;;;15.40;99.90;;;;;;5043658;28;20202;-88
2023/08/27 19:59:07;;;;;;;3.03;1.80;;;15.40;99.90;;;;;;5016349;28;20194;-89
2023/08/27 20:01:34;;;;;;;1.88;1.70;;;15.30;99.90;;;;;;5034065;28;20205;-89
2023/08/27 20:06:44;;;;;;;1.77;1.60;;;15.30;99.90;;;;;;5015459;28;20206;-88
2023/08/27 20:09:54;;;;;;;2.13;1.65;;;15.40;99.90;;;;;;5008429;28;20671;-89
2023/08/27 20:16:37;;;;;;;3.40;1.90;;;15.40;99.90;;;;;;5034402;28;20193;-88
2023/08/27 20:19:06;;;;;;;1.70;1.60;;;15.40;99.90;;;;;;5034317;28;20194;-88
2023/08/27 20:21:33;;;;;;;1.75;1.52;;;15.30;99.90;;;;;;5033789;28;20225;-88
2023/08/27 20:24:00;;;;;;;2.83;1.60;;;15.30;99.90;;;;;;5016670;28;20195;-89
2023/08/27 20:26:27;;;;;;;1.70;1.52;;;15.30;99.90;;;;;;5033911;28;20198;-89
2023/08/27 20:28:54;;;;;;;3.47;1.70;;;15.30;99.90;;;;;;5033946;28;20210;-88
2023/08/27 20:31:21;;;;;;;1.63;1.52;;;15.30;99.90;;;;;;5033899;28;20224;-88
2023/08/27 20:33:48;;;;;;;2.20;1.80;;;15.30;99.90;;;;;;5033984;28;20594;-88
2023/08/27 20:36:16;;;;;;;1.73;1.50;;;15.30;99.90;;;;;;5033423;28;20211;-88
2023/08/27 20:38:43;;;;;;;2.83;1.60;;;15.30;99.90;;;;;;4999817;28;20651;-88
2023/08/27 20:41:10;;;;;;;1.35;1.27;;;15.20;99.90;;;;;;5033757;28;20269;-89
2023/08/27 20:43:38;;;;;;;1.70;1.60;;;15.20;99.90;;;;;;5033695;28;20734;-88
2023/08/27 20:46:06;;;;;;;2.05;1.77;;;15.30;99.90;;;;;;5033575;28;20206;-88
2023/08/27 20:48:33;;;;;;;1.80;1.70;;;15.30;99.90;;;;;;5016274;28;20208;-88
2023/08/27 20:50:59;;;;;;;2.05;1.60;;;15.30;99.90;;;;;;5033822;28;20233;-88
2023/08/27 20:53:39;;;;;;;3.53;1.75;;;15.30;99.90;;;;;;5033722;28;20643;-89
2023/08/27 20:56:14;;;;;;;1.80;1.67;;;15.30;99.90;;;;;;5026035;28;20603;-88
2023/08/27 20:58:41;;;;;;;3.47;1.75;;;15.40;99.90;;;;;;5024497;28;20209;-89
2023/08/27 21:01:09;;;;;;;1.77;1.67;;;15.40;99.90;;;;;;5025685;28;20235;-88
2023/08/27 21:03:37;;;;;;;1.88;1.67;;;15.30;99.90;;;;;;5016051;28;20245;-88
2023/08/27 21:06:04;;;;;;;2.10;1.48;;;15.30;99.90;;;;;;5022814;28;20285;-89
2023/08/27 21:08:31;;;;;;;3.05;1.90;;;15.20;99.90;;;;;;4991122;28;20268;-90
2023/08/27 21:13:41;;;;;;;4.07;2.08;;;15.30;99.90;;;;;;5024203;28;20347;-90
2023/08/27 21:16:08;;;;;;;2.65;1.40;;;15.30;99.90;;;;;;5011328;28;20280;-92
2023/08/27 21:18:35;;;;;;;2.55;1.58;;;15.30;99.90;;;;;;5017488;28;20191;-90
2023/08/27 21:21:05;;;;;;;2.33;1.80;;;15.20;99.90;;;;;;5011430;28;20203;-90
2023/08/27 21:23:31;;;;;;;2.63;1.83;;;15.20;99.90;;;;;;5037279;28;20214;-90
2023/08/27 21:26:00;;;;;;;3.63;1.60;;;15.20;99.90;;;;;;5028237;28;20195;-90
2023/08/27 21:28:27;;;;;;;4.85;1.80;;;15.20;99.90;;;;;;5019454;28;20569;-89
2023/08/27 21:30:54;;;;;;;2.05;1.80;;;15.20;99.90;;;;;;5027563;28;20687;-90
2023/08/27 21:33:21;;;;;;;2.95;1.67;;;15.20;99.90;;;;;;5007124;28;20214;-89
2023/08/27 21:35:47;;;;;;;1.92;1.60;;;15.20;99.90;;;;;;5028866;28;20203;-89
2023/08/27 21:38:14;;;;;;;2.03;1.63;;;15.20;99.90;;;;;;5031640;28;20570;-90
2023/08/27 21:40:43;;;;;;;1.70;1.50;;;15.20;99.90;;;;;;5040859;28;20202;-89
2023/08/27 21:43:11;;;;;;;2.13;1.60;;;15.20;99.90;;;;;;5030698;28;20589;-89
2023/08/27 21:45:38;;;;;;;2.72;1.80;;;15.30;99.90;;;;;;5039024;28;20199;-89
2023/08/27 21:48:05;;;;;;;2.05;1.70;;;15.20;99.90;;;;;;5038396;28;20669;-89
2023/08/27 21:50:32;;;;;;;2.35;1.70;;;15.20;99.90;;;;;;5026092;28;20742;-90
2023/08/27 21:52:59;;;;;;;3.05;1.90;;;15.20;99.90;;;;;;5036249;28;20201;-89
2023/08/27 21:55:26;;;;;;;2.40;2.00;;;15.20;99.90;;;;;;5008283;28;20207;-90
2023/08/27 21:57:55;;;;;;;2.20;1.67;;;15.20;99.90;;;;;;5018215;28;20199;-89
2023/08/27 22:00:24;;;;;;;2.20;2.00;;;15.20;99.90;;;;;;5028489;28;20207;-89
2023/08/27 22:02:51;;;;;;;4.05;2.38;;;15.20;99.90;;;;;;5011548;28;20321;-89
2023/08/27 22:05:18;;;;;;;1.80;1.70;;;15.20;99.90;;;;;;5011223;28;20213;-89
2023/08/27 22:07:45;;;;;;;2.00;1.80;;;15.20;99.90;;;;;;5011616;28;20210;-89
2023/08/27 22:10:12;;;;;;;3.25;1.70;;;15.20;99.90;;;;;;5019376;28;20692;-89
2023/08/27 22:12:39;;;;;;;2.80;1.77;;;15.30;99.90;;;;;;5030915;28;20719;-89
2023/08/27 22:15:08;;;;;;;3.20;1.70;;;15.40;99.90;;;;;;5023342;28;20206;-89
2023/08/27 22:17:36;;;;;;;1.50;1.40;;;15.30;99.90;;;;;;5026595;28;20735;-89
2023/08/27 22:20:06;;;;;;;3.65;1.77;;;15.30;99.90;;;;;;5029194;28;20199;-89
2023/08/27 22:22:33;;;;;;;2.45;1.90;;;15.30;99.90;;;;;;5028183;28;20656;-88